Time;durP1;ratioP1;P1;durP2;ratioP2;P2;SDS_P1;SDS_P2;PMS_P1;PMS_P2;Temp;Humidity;BMP_temperature;BMP_pressure;BME280_temperature;BME280_humidity;BME280_pressure;Samples;Min_cycle;Max_cycle;Signal;HPM_P1;HPM_P2
2021/09/28 00:02:25;;;;;;;;;;;11.70;99.90;;;;;;5038964;28;19932;-71
2021/09/28 00:04:53;;;;;;;;;;;11.80;99.90;;;;;;5041326;28;19925;-73
2021/09/28 00:07:19;;;;;;;;;;;11.80;99.90;;;;;;5045783;28;19924;-73
2021/09/28 00:09:46;;;;;;;;;;;11.80;99.90;;;;;;5046307;28;19975;-74
2021/09/28 00:12:13;;;;;;;;;;;11.80;99.90;;;;;;5045270;28;19931;-72
2021/09/28 00:14:40;;;;;;;;;;;11.80;99.90;;;;;;5040951;28;20359;-73
2021/09/28 00:17:07;;;;;;;;;;;11.90;99.90;;;;;;5040479;28;19925;-73
2021/09/28 00:19:33;;;;;;;;;;;11.90;99.90;;;;;;5044086;28;20307;-73
2021/09/28 00:22:01;;;;;;;;;;;11.90;99.90;;;;;;5041387;28;20011;-73
2021/09/28 00:24:28;;;;;;;;;;;11.90;99.90;;;;;;5044088;28;20434;-73
2021/09/28 00:26:55;;;;;;;;;;;11.90;99.90;;;;;;5042412;28;19924;-73
2021/09/28 00:29:21;;;;;;;;;;;11.90;99.90;;;;;;5045401;28;19925;-73
2021/09/28 00:31:48;;;;;;;;;;;11.90;99.90;;;;;;5040744;28;20113;-73
2021/09/28 00:34:15;;;;;;;;;;;11.80;99.90;;;;;;5044969;28;19924;-74
2021/09/28 00:36:41;;;;;;;;;;;11.80;99.90;;;;;;5043521;28;19931;-74
2021/09/28 00:39:09;;;;;;;;;;;11.70;99.90;;;;;;5045445;28;20364;-74
2021/09/28 00:41:36;;;;;;;;;;;11.70;99.90;;;;;;5045437;28;19975;-74
2021/09/28 00:44:03;;;;;;;;;;;11.70;99.90;;;;;;5044629;28;19925;-74
2021/09/28 00:46:29;;;;;;;;;;;11.60;99.90;;;;;;5045864;28;19924;-74
2021/09/28 00:48:56;;;;;;;;;;;11.60;99.90;;;;;;5044286;28;19931;-74
2021/09/28 00:51:24;;;;;;;;;;;11.60;99.90;;;;;;5047778;28;19951;-73
2021/09/28 00:53:52;;;;;;;;;;;11.50;99.90;;;;;;5038949;28;20509;-74
2021/09/28 00:56:21;;;;;;;;;;;11.50;99.90;;;;;;5044702;28;20011;-74
2021/09/28 00:58:48;;;;;;;;;;;11.50;99.90;;;;;;5040181;28;20451;-74
2021/09/28 01:01:15;;;;;;;;;;;11.50;99.90;;;;;;5036278;28;19925;-74
2021/09/28 01:03:42;;;;;;;;;;;11.40;99.90;;;;;;5039991;28;19944;-74
2021/09/28 01:06:09;;;;;;;;;;;11.40;99.90;;;;;;5035401;28;20388;-74
2021/09/28 01:08:35;;;;;;;;;;;11.40;99.90;;;;;;5043183;28;20033;-74
2021/09/28 01:11:03;;;;;;;;;;;11.30;99.90;;;;;;5042339;28;19925;-74
2021/09/28 01:13:31;;;;;;;;;;;11.30;99.90;;;;;;5044193;28;19940;-74
2021/09/28 01:16:07;;;;;;;;;;;11.30;99.90;;;;;;5048675;28;19925;-74
2021/09/28 01:18:35;;;;;;;;;;;11.30;99.90;;;;;;5045820;28;20027;-74
2021/09/28 01:21:04;;;;;;;;;;;11.20;99.90;;;;;;5042775;28;19924;-74
2021/09/28 01:23:31;;;;;;;;;;;11.20;99.90;;;;;;5043934;28;20015;-74
2021/09/28 01:25:57;;;;;;;;;;;11.20;99.90;;;;;;5045833;28;19939;-74
2021/09/28 01:28:24;;;;;;;;;;;11.20;99.90;;;;;;5044249;28;19925;-74
2021/09/28 01:30:51;;;;;;;;;;;11.10;99.90;;;;;;5049405;28;19935;-74
2021/09/28 01:33:17;;;;;;;;;;;11.10;99.90;;;;;;5048724;28;19925;-73
2021/09/28 01:35:44;;;;;;;;;;;11.10;99.90;;;;;;5044833;28;19925;-74
2021/09/28 01:38:12;;;;;;;;;;;11.10;99.90;;;;;;5049989;28;20076;-73
2021/09/28 01:40:39;;;;;;;;;;;11.10;99.90;;;;;;5042295;28;19925;-73
2021/09/28 01:43:06;;;;;;;;;;;11.10;99.90;;;;;;5051420;28;20019;-73
2021/09/28 01:45:33;;;;;;;;;;;11.10;99.90;;;;;;5045899;28;19925;-74
2021/09/28 01:48:00;;;;;;;;;;;11.10;99.90;;;;;;5051048;28;19933;-73
2021/09/28 01:50:26;;;;;;;;;;;11.10;99.90;;;;;;5046357;28;19943;-73
2021/09/28 01:52:53;;;;;;;;;;;11.00;99.90;;;;;;5049184;28;19925;-73
2021/09/28 01:55:21;;;;;;;;;;;11.00;99.90;;;;;;5043611;28;19935;-73
2021/09/28 01:57:48;;;;;;;;;;;11.00;99.90;;;;;;5047129;28;20289;-74
2021/09/28 02:00:15;;;;;;;;;;;10.90;99.90;;;;;;5038477;28;19933;-73
2021/09/28 02:02:41;;;;;;;;;;;10.90;99.90;;;;;;5044500;28;20017;-73
2021/09/28 02:05:08;;;;;;;;;;;10.90;99.90;;;;;;5044749;28;19933;-74
2021/09/28 02:07:35;;;;;;;;;;;10.90;99.90;;;;;;5044331;28;19933;-73
2021/09/28 02:10:02;;;;;;;;;;;10.80;99.90;;;;;;5045586;28;19931;-73
2021/09/28 02:12:30;;;;;;;;;;;10.80;99.90;;;;;;5046736;28;19925;-73
2021/09/28 02:14:56;;;;;;;;;;;10.80;99.90;;;;;;5046666;28;19932;-74
2021/09/28 02:17:23;;;;;;;;;;;10.80;99.90;;;;;;5041004;28;19933;-73
2021/09/28 02:19:50;;;;;;;;;;;10.80;99.90;;;;;;5045819;28;19928;-73
2021/09/28 02:22:16;;;;;;;;;;;10.80;99.90;;;;;;5047818;28;19928;-73
2021/09/28 02:24:43;;;;;;;;;;;10.80;99.90;;;;;;5041293;28;19940;-73
2021/09/28 02:27:10;;;;;;;;;;;10.80;99.90;;;;;;5045790;28;20062;-73
2021/09/28 02:29:38;;;;;;;;;;;10.80;99.90;;;;;;5045746;28;19935;-73
2021/09/28 02:32:05;;;;;;;;;;;10.80;99.90;;;;;;5050063;28;19941;-73
2021/09/28 02:34:35;;;;;;;;;;;10.80;99.90;;;;;;5044093;28;19928;-72
2021/09/28 02:37:02;;;;;;;;;;;10.80;99.90;;;;;;5047813;28;19975;-73
2021/09/28 02:39:28;;;;;;;;;;;10.80;99.90;;;;;;5042266;28;19933;-73
2021/09/28 02:41:55;;;;;;;;;;;10.80;99.90;;;;;;5050268;28;20011;-72
2021/09/28 02:44:22;;;;;;;;;;;10.80;99.90;;;;;;5045981;28;20387;-73
2021/09/28 02:46:50;;;;;;;;;;;10.80;99.90;;;;;;5047752;28;19925;-73
2021/09/28 02:49:17;;;;;;;;;;;10.80;99.90;;;;;;5042898;28;20288;-74
2021/09/28 02:51:43;;;;;;;;;;;10.80;99.90;;;;;;5049165;28;19925;-73
2021/09/28 02:54:10;;;;;;;;;;;10.80;99.90;;;;;;5047794;28;21321;-73
2021/09/28 02:56:37;;;;;;;;;;;10.80;99.90;;;;;;5045378;28;19929;-73
2021/09/28 02:59:03;;;;;;;;;;;10.80;99.90;;;;;;5048185;28;19929;-73
2021/09/28 03:01:30;;;;;;;;;;;10.80;99.90;;;;;;5042104;28;19928;-73
2021/09/28 03:03:58;;;;;;;;;;;10.80;99.90;;;;;;5048516;28;19924;-73
2021/09/28 03:06:25;;;;;;;;;;;10.80;99.90;;;;;;5043369;28;19925;-73
2021/09/28 03:08:51;;;;;;;;;;;10.80;99.90;;;;;;5048859;28;19939;-73
2021/09/28 03:11:18;;;;;;;;;;;10.80;99.90;;;;;;5040852;28;19931;-73
2021/09/28 03:13:45;;;;;;;;;;;10.80;99.90;;;;;;5044130;28;20403;-73
2021/09/28 03:16:11;;;;;;;;;;;10.70;99.90;;;;;;5044955;28;19943;-73
2021/09/28 03:18:38;;;;;;;;;;;10.70;99.90;;;;;;5050552;28;19931;-74
2021/09/28 03:21:06;;;;;;;;;;;10.70;99.90;;;;;;5043215;28;19933;-75
2021/09/28 03:23:32;;;;;;;;;;;10.70;99.90;;;;;;5049349;28;19924;-74
2021/09/28 03:25:59;;;;;;;;;;;10.70;99.90;;;;;;5043495;28;19931;-74
2021/09/28 03:28:26;;;;;;;;;;;10.60;99.90;;;;;;5049109;28;20299;-74
2021/09/28 03:30:52;;;;;;;;;;;10.60;99.90;;;;;;5045110;28;19925;-73
2021/09/28 03:33:19;;;;;;;;;;;10.60;99.90;;;;;;5043612;28;19925;-74
2021/09/28 03:35:46;;;;;;;;;;;10.60;99.90;;;;;;5045800;28;19931;-73
2021/09/28 03:38:14;;;;;;;;;;;10.50;99.90;;;;;;5045774;28;20287;-73
2021/09/28 03:40:40;;;;;;;;;;;10.50;99.90;;;;;;5044438;28;19935;-73
2021/09/28 03:43:07;;;;;;;;;;;10.50;99.90;;;;;;5044625;28;20466;-73
2021/09/28 03:45:34;;;;;;;;;;;10.40;99.90;;;;;;5041918;28;19932;-73
2021/09/28 03:48:01;;;;;;;;;;;10.40;99.90;;;;;;5044451;28;19928;-73
2021/09/28 03:50:28;;;;;;;;;;;10.40;99.90;;;;;;5047441;28;19929;-74
2021/09/28 03:52:55;;;;;;;;;;;10.40;99.90;;;;;;5044762;28;20299;-74
2021/09/28 03:55:23;;;;;;;;;;;10.30;99.90;;;;;;5044090;28;20376;-74
2021/09/28 03:57:50;;;;;;;;;;;10.30;99.90;;;;;;5037570;28;20039;-74
2021/09/28 04:00:17;;;;;;;;;;;10.30;99.90;;;;;;5039652;28;19924;-72
2021/09/28 04:02:44;;;;;;;;;;;10.30;99.90;;;;;;5042910;28;19925;-73
2021/09/28 04:05:11;;;;;;;;;;;10.30;99.90;;;;;;5045564;28;19924;-73
2021/09/28 04:07:38;;;;;;;;;;;10.30;99.90;;;;;;5043445;28;19933;-73
2021/09/28 04:10:05;;;;;;;;;;;10.20;99.90;;;;;;5042468;28;19932;-73
2021/09/28 04:12:34;;;;;;;;;;;10.20;99.90;;;;;;5045754;28;19924;-74
2021/09/28 04:15:01;;;;;;;;;;;10.20;99.90;;;;;;5038122;28;20934;-73
2021/09/28 04:17:28;;;;;;;;;;;10.20;99.90;;;;;;5041449;28;20027;-73
2021/09/28 04:19:55;;;;;;;;;;;10.20;99.90;;;;;;5045143;28;20371;-74
2021/09/28 04:22:22;;;;;;;;;;;10.20;99.90;;;;;;5044643;28;19932;-74
2021/09/28 04:24:49;;;;;;;;;;;10.20;99.90;;;;;;5040577;28;20399;-73
2021/09/28 04:27:16;;;;;;;;;;;10.20;99.90;;;;;;5046224;28;19925;-73
2021/09/28 04:29:44;;;;;;;;;;;10.20;99.90;;;;;;5045111;28;19938;-73
2021/09/28 04:32:11;;;;;;;;;;;10.10;99.90;;;;;;5043481;28;19933;-74
2021/09/28 04:34:38;;;;;;;;;;;10.10;99.90;;;;;;5039106;28;19925;-73
2021/09/28 04:37:05;;;;;;;;;;;10.20;99.90;;;;;;5043547;28;19924;-74
2021/09/28 04:39:32;;;;;;;;;;;10.10;99.90;;;;;;5042394;28;20406;-73
2021/09/28 04:41:58;;;;;;;;;;;10.10;99.90;;;;;;5045919;28;19925;-73
2021/09/28 04:44:25;;;;;;;;;;;10.20;99.90;;;;;;5038000;28;19929;-73
2021/09/28 04:46:53;;;;;;;;;;;10.20;99.90;;;;;;5045867;28;20022;-72
2021/09/28 04:49:20;;;;;;;;;;;10.20;99.90;;;;;;5042280;28;19940;-73
2021/09/28 04:51:46;;;;;;;;;;;10.20;99.90;;;;;;5037311;28;20008;-73
2021/09/28 04:54:13;;;;;;;;;;;10.20;99.90;;;;;;5040444;28;19931;-73
2021/09/28 04:56:40;;;;;;;;;;;10.20;99.90;;;;;;5040992;28;19925;-72
2021/09/28 04:59:06;;;;;;;;;;;10.20;99.90;;;;;;5046844;28;20019;-73
2021/09/28 05:01:33;;;;;;;;;;;10.20;99.90;;;;;;5041646;28;20367;-73
2021/09/28 05:04:01;;;;;;;;;;;10.20;99.90;;;;;;5041353;28;20318;-73
2021/09/28 05:06:28;;;;;;;;;;;10.20;99.90;;;;;;5041999;28;19931;-74
2021/09/28 05:08:54;;;;;;;;;;;10.20;99.90;;;;;;5043017;28;19925;-73
2021/09/28 05:11:21;;;;;;;;;;;10.10;99.90;;;;;;5042827;28;19939;-73
2021/09/28 05:13:48;;;;;;;;;;;10.10;99.90;;;;;;5035692;28;19932;-73
2021/09/28 05:16:14;;;;;;;;;;;10.00;99.90;;;;;;5028702;28;19932;-73
2021/09/28 05:18:41;;;;;;;;;;;10.00;99.90;;;;;;5041710;28;19929;-72
2021/09/28 05:21:09;;;;;;;;;;;10.10;99.90;;;;;;5042124;28;19929;-72
2021/09/28 05:23:35;;;;;;;;;;;10.10;99.90;;;;;;5044909;28;19925;-73
2021/09/28 05:26:02;;;;;;;;;;;10.10;99.90;;;;;;5034074;28;19939;-74
2021/09/28 05:28:29;;;;;;;;;;;10.10;99.90;;;;;;5032454;28;20406;-74
2021/09/28 05:30:58;;;;;;;;;;;10.10;99.90;;;;;;5031390;28;19932;-73
2021/09/28 05:33:24;;;;;;;;;;;10.10;99.90;;;;;;5033273;28;19936;-72
2021/09/28 05:35:51;;;;;;;;;;;10.00;99.90;;;;;;5035849;28;19936;-72
2021/09/28 05:38:19;;;;;;;;;;;10.00;99.90;;;;;;5030503;28;19929;-72
2021/09/28 05:40:46;;;;;;;;;;;10.10;99.90;;;;;;5034864;28;19925;-72
2021/09/28 05:43:12;;;;;;;;;;;10.10;99.90;;;;;;5032821;28;19925;-72
2021/09/28 05:45:39;;;;;;;;;;;10.10;99.90;;;;;;5038259;28;19947;-75
2021/09/28 05:48:06;;;;;;;;;;;10.10;99.90;;;;;;5035618;28;19924;-77
2021/09/28 05:50:34;;;;;;;;;;;10.10;99.90;;;;;;5037208;28;20285;-77
2021/09/28 05:53:06;;;;;;;;;;;10.10;99.90;;;;;;5037578;28;20480;-78
2021/09/28 05:55:34;;;;;;;;;;;10.10;99.90;;;;;;5036647;28;19972;-77
2021/09/28 05:58:01;;;;;;;;;;;10.10;99.90;;;;;;5042504;28;19924;-76
2021/09/28 06:00:28;;;;;;;;;;;10.20;99.90;;;;;;5039850;28;19933;-77
2021/09/28 06:02:55;;;;;;;;;;;10.20;99.90;;;;;;5041713;28;19931;-76
2021/09/28 06:05:21;;;;;;;;;;;10.20;99.90;;;;;;5040188;28;19932;-76
2021/09/28 06:07:48;;;;;;;;;;;10.30;99.90;;;;;;5036608;28;19950;-79
2021/09/28 06:10:15;;;;;;;;;;;10.40;99.90;;;;;;5036343;28;21884;-79
2021/09/28 06:12:43;;;;;;;;;;;10.40;99.90;;;;;;5046717;28;20433;-77
2021/09/28 06:15:10;;;;;;;;;;;10.50;99.90;;;;;;5039964;28;19925;-76
2021/09/28 06:17:37;;;;;;;;;;;10.50;99.90;;;;;;5048627;28;20440;-78
2021/09/28 06:20:04;;;;;;;;;;;10.60;99.90;;;;;;5042663;28;19951;-79
2021/09/28 06:22:31;;;;;;;;;;;10.60;99.90;;;;;;5045565;28;20436;-80
2021/09/28 06:24:58;;;;;;;;;;;10.50;99.90;;;;;;5048158;28;20447;-75
2021/09/28 06:27:25;;;;;;;;;;;10.70;99.90;;;;;;5045141;28;19982;-76
2021/09/28 06:29:53;;;;;;;;;;;10.70;99.90;;;;;;5051334;28;19932;-80
2021/09/28 06:32:22;;;;;;;;;;;10.80;99.90;;;;;;5049167;28;20016;-80
2021/09/28 06:34:49;;;;;;;;;;;10.80;99.90;;;;;;5047276;28;20008;-80
2021/09/28 06:37:16;;;;;;;;;;;10.90;99.90;;;;;;5045230;28;19925;-80
2021/09/28 06:39:43;;;;;;;;;;;10.90;99.90;;;;;;5048396;28;19929;-80
2021/09/28 06:42:10;;;;;;;;;;;11.10;99.90;;;;;;5048397;28;20159;-77
2021/09/28 06:44:36;;;;;;;;;;;11.10;99.90;;;;;;5041845;28;20012;-78
2021/09/28 06:47:05;;;;;;;;;;;11.20;99.90;;;;;;5041918;28;20335;-79
2021/09/28 06:49:31;;;;;;;;;;;11.30;99.90;;;;;;5038613;28;19928;-77
2021/09/28 06:51:58;;;;;;;;;;;11.40;99.90;;;;;;5048179;28;19987;-78
2021/09/28 06:54:25;;;;;;;;;;;11.50;99.90;;;;;;5051598;28;19935;-78
2021/09/28 06:56:52;;;;;;;;;;;11.60;99.90;;;;;;5044441;28;19939;-80
2021/09/28 06:59:19;;;;;;;;;;;11.70;99.90;;;;;;5047461;28;20388;-79
2021/09/28 07:01:46;;;;;;;;;;;11.70;99.90;;;;;;5042093;28;19932;-79
2021/09/28 07:04:14;;;;;;;;;;;11.80;99.90;;;;;;5044100;28;20431;-78
2021/09/28 07:06:41;;;;;;;;;;;12.00;99.90;;;;;;5045317;28;19925;-74
2021/09/28 07:09:07;;;;;;;;;;;12.10;99.90;;;;;;5044150;28;19925;-79
2021/09/28 07:11:34;;;;;;;;;;;12.20;99.90;;;;;;5041349;28;19924;-77
2021/09/28 07:14:01;;;;;;;;;;;12.20;99.90;;;;;;5044492;28;19932;-76
2021/09/28 07:16:28;;;;;;;;;;;12.30;99.90;;;;;;5049434;28;19929;-76
2021/09/28 07:18:54;;;;;;;;;;;12.50;99.90;;;;;;5046560;28;19924;-77
2021/09/28 07:21:22;;;;;;;;;;;12.50;99.90;;;;;;5042309;28;20278;-76
2021/09/28 07:23:49;;;;;;;;;;;12.60;99.90;;;;;;5036481;28;19931;-74
2021/09/28 07:26:16;;;;;;;;;;;12.70;99.90;;;;;;5033733;28;20502;-75
2021/09/28 07:28:42;;;;;;;;;;;12.80;99.90;;;;;;5044885;28;19929;-75
2021/09/28 07:31:09;;;;;;;;;;;12.90;99.90;;;;;;5042095;28;20020;-78
2021/09/28 07:33:36;;;;;;;;;;;13.30;99.90;;;;;;5044937;28;19955;-76
2021/09/28 07:36:05;;;;;;;;;;;14.60;99.90;;;;;;5050366;28;20027;-75
2021/09/28 07:38:34;;;;;;;;;;;16.40;99.90;;;;;;5046038;28;19948;-75
2021/09/28 07:41:01;;;;;;;;;;;17.90;99.90;;;;;;5039374;28;19925;-76
2021/09/28 07:43:27;;;;;;;;;;;18.70;99.90;;;;;;5044885;28;19929;-75
2021/09/28 07:45:54;;;;;;;;;;;18.70;99.70;;;;;;5045016;28;20474;-76
2021/09/28 07:48:21;;;;;;;;;;;19.10;98.30;;;;;;5043368;28;19943;-75
2021/09/28 07:50:48;;;;;;;;;;;19.60;96.80;;;;;;5041557;28;20015;-76
2021/09/28 07:53:14;;;;;;;;;;;19.30;96.60;;;;;;5046452;28;19928;-73
2021/09/28 07:55:42;;;;;;;;;;;19.10;97.00;;;;;;5041035;28;19924;-78
2021/09/28 07:58:09;;;;;;;;;;;19.20;96.70;;;;;;5040373;28;19929;-77
2021/09/28 08:00:39;;;;;;;;;;;19.30;95.60;;;;;;5041719;28;19936;-78
2021/09/28 08:03:07;;;;;;;;;;;19.20;96.50;;;;;;5044405;28;19936;-76
2021/09/28 08:05:33;;;;;;;;;;;19.30;96.20;;;;;;5041849;28;19937;-78
2021/09/28 08:08:00;;;;;;;;;;;19.90;95.40;;;;;;5044083;28;19925;-75
2021/09/28 08:10:27;;;;;;;;;;;20.60;94.50;;;;;;5041627;28;19925;-76
2021/09/28 08:12:56;;;;;;;;;;;21.50;93.00;;;;;;5045070;28;20020;-76
2021/09/28 08:15:22;;;;;;;;;;;22.20;91.20;;;;;;5045078;28;20660;-76
2021/09/28 08:17:49;;;;;;;;;;;23.20;86.10;;;;;;5043509;28;19937;-78
2021/09/28 08:20:18;;;;;;;;;;;23.70;79.80;;;;;;5041268;28;19933;-77
2021/09/28 08:22:45;;;;;;;;;;;23.60;76.60;;;;;;5041149;28;20387;-78
2021/09/28 08:25:15;;;;;;;;;;;23.30;73.80;;;;;;5036979;28;20055;-77
2021/09/28 08:30:27;;;;;;;;;;;22.70;75.60;;;;;;5038899;28;19939;-80
2021/09/28 08:32:54;;;;;;;;;;;22.90;75.60;;;;;;5042829;28;19933;-78
2021/09/28 08:35:21;;;;;;;;;;;23.30;73.40;;;;;;5035770;28;19932;-77
2021/09/28 08:37:47;;;;;;;;;;;23.70;71.50;;;;;;5042793;28;19932;-78
2021/09/28 08:40:15;;;;;;;;;;;23.10;70.70;;;;;;5042685;28;20020;-76
2021/09/28 08:42:42;;;;;;;;;;;22.90;72.90;;;;;;5041716;28;20032;-79
2021/09/28 08:45:10;;;;;;;;;;;23.60;69.90;;;;;;5042575;28;19925;-78
2021/09/28 08:47:39;;;;;;;;;;;23.50;69.00;;;;;;5041040;28;19978;-79
2021/09/28 08:50:14;;;;;;;;;;;22.70;70.40;;;;;;5037631;28;19936;-80
2021/09/28 08:52:41;;;;;;;;;;;22.70;71.80;;;;;;5042911;28;19924;-78
2021/09/28 08:55:08;;;;;;;;;;;23.20;69.80;;;;;;5040074;28;19929;-78
2021/09/28 08:57:35;;;;;;;;;;;22.90;70.00;;;;;;5038558;28;19935;-77
2021/09/28 09:00:01;;;;;;;;;;;23.30;69.80;;;;;;5038548;28;19933;-77
2021/09/28 09:02:41;;;;;;;;;;;24.10;67.30;;;;;;5036666;28;20469;-76
2021/09/28 09:05:13;;;;;;;;;;;24.70;64.10;;;;;;5036719;28;20486;-76
2021/09/28 09:07:40;;;;;;;;;;;24.60;63.30;;;;;;5042923;28;19932;-76
2021/09/28 09:10:07;;;;;;;;;;;24.70;62.00;;;;;;5045867;28;19968;-76
2021/09/28 09:12:35;;;;;;;;;;;24.90;60.20;;;;;;5045420;28;20004;-73
2021/09/28 09:15:21;;;;;;;;;;;24.70;59.70;;;;;;5043100;28;19925;-75
2021/09/28 09:17:50;;;;;;;;;;;24.20;62.00;;;;;;5048408;28;19951;-77
2021/09/28 09:20:28;;;;;;;;;;;24.80;61.80;;;;;;5065626;22;20295;-77
2021/09/28 09:22:55;;;;;;;;;;;25.20;60.00;;;;;;5021821;28;19929;-78
2021/09/28 09:25:22;;;;;;;;;;;25.30;55.90;;;;;;5024344;28;19932;-77
2021/09/28 09:27:49;;;;;;;;;;;24.20;58.10;;;;;;5024365;28;19925;-80
2021/09/28 09:30:19;;;;;;;;;;;23.70;60.80;;;;;;5020896;28;19932;-78
2021/09/28 09:32:47;;;;;;;;;;;22.90;60.70;;;;;;5080153;23;19925;-79
2021/09/28 09:35:22;;;;;;;;;;;22.40;64.60;;;;;;5038629;28;19925;-79
2021/09/28 09:37:49;;;;;;;;;;;22.10;64.70;;;;;;5035116;28;19931;-78
2021/09/28 09:40:30;;;;;;;;;;;22.40;65.40;;;;;;5039029;28;20392;-79
2021/09/28 09:42:56;;;;;;;;;;;22.30;63.80;;;;;;5027887;28;20308;-79
2021/09/28 09:45:24;;;;;;;;;;;22.30;65.50;;;;;;5036498;28;19978;-79
2021/09/28 09:47:51;;;;;;;;;;;22.40;65.30;;;;;;5040001;28;19925;-79
2021/09/28 09:50:20;;;;;;;;;;;23.10;63.60;;;;;;5038960;28;19925;-79
2021/09/28 09:53:04;;;;;;;;;;;22.90;61.40;;;;;;5034027;28;19975;-80
2021/09/28 09:55:32;;;;;;;;;;;22.40;61.90;;;;;;5039899;28;19948;-77
2021/09/28 09:57:59;;;;;;;;;;;22.10;62.90;;;;;;5038796;28;19925;-76
2021/09/28 10:00:26;;;;;;;;;;;21.60;66.00;;;;;;5044327;28;20007;-76
2021/09/28 10:02:53;;;;;;;;;;;20.70;68.50;;;;;;5038304;28;19955;-75
2021/09/28 10:05:21;;;;;;;;;;;19.90;71.00;;;;;;5036131;28;19925;-76
2021/09/28 10:07:49;;;;;;;;;;;19.20;76.00;;;;;;5037974;28;19925;-76
2021/09/28 10:10:16;;;;;;;;;;;18.80;76.50;;;;;;5032489;28;19925;-76
2021/09/28 10:12:43;;;;;;;;;;;18.40;80.00;;;;;;5031078;28;19933;-75
2021/09/28 10:15:10;;;;;;;;;;;18.50;83.60;;;;;;5033051;28;20392;-75
2021/09/28 10:17:40;;;;;;;;;;;18.50;83.40;;;;;;5032958;28;20003;-77
2021/09/28 10:20:08;;;;;;;;;;;18.40;83.70;;;;;;5038890;28;19925;-78
2021/09/28 10:22:39;;;;;;;;;;;18.20;84.00;;;;;;5035145;28;19925;-78
2021/09/28 10:25:21;;;;;;;;;;;18.20;84.20;;;;;;5037616;28;19925;-78
2021/09/28 10:27:48;;;;;;;;;;;18.10;85.20;;;;;;5031974;28;19964;-77
2021/09/28 10:30:40;;;;;;;;;;;18.20;87.00;;;;;;5030253;28;19951;-78
2021/09/28 10:33:07;;;;;;;;;;;18.30;85.20;;;;;;5025314;28;20273;-78
2021/09/28 10:35:35;;;;;;;;;;;18.40;86.00;;;;;;5023991;28;19987;-78
2021/09/28 10:38:04;;;;;;;;;;;18.40;84.30;;;;;;5030917;28;20016;-79
2021/09/28 10:40:47;;;;;;;;;;;18.60;84.10;;;;;;5030259;28;19933;-78
2021/09/28 10:43:25;;;;;;;;;;;18.80;82.80;;;;;;5029975;28;20375;-79
2021/09/28 10:45:52;;;;;;;;;;;18.80;82.80;;;;;;5033562;28;19925;-79
2021/09/28 10:48:35;;;;;;;;;;;18.80;82.80;;;;;;5039330;28;19951;-79
2021/09/28 10:51:08;;;;;;;;;;;19.00;82.70;;;;;;5037032;28;19925;-76
2021/09/28 10:53:36;;;;;;;;;;;19.40;82.90;;;;;;5034902;28;19933;-78
2021/09/28 10:56:04;;;;;;;;;;;19.50;81.00;;;;;;5029645;28;19947;-79
2021/09/28 10:58:48;;;;;;;;;;;19.30;83.20;;;;;;5040920;28;19928;-78
2021/09/28 11:01:15;;;;;;;;;;;19.30;83.70;;;;;;5033000;28;20015;-78
2021/09/28 11:03:55;;;;;;;;;;;19.30;83.10;;;;;;5034914;28;19932;-78
2021/09/28 11:06:37;;;;;;;;;;;19.30;83.00;;;;;;5031590;28;19926;-78
2021/09/28 11:09:05;;;;;;;;;;;19.20;82.20;;;;;;5032098;28;19932;-78
2021/09/28 11:11:32;;;;;;;;;;;19.20;81.40;;;;;;5036821;28;20029;-78
2021/09/28 11:14:00;;;;;;;;;;;19.20;81.80;;;;;;5032965;28;20435;-77
2021/09/28 11:16:27;;;;;;;;;;;19.20;81.50;;;;;;5034792;28;19925;-78
2021/09/28 11:18:54;;;;;;;;;;;18.90;82.00;;;;;;5039991;28;20213;-78
2021/09/28 11:21:21;;;;;;;;;;;18.80;82.40;;;;;;5038644;28;20564;-78
2021/09/28 11:23:50;;;;;;;;;;;19.00;82.30;;;;;;5039011;28;19925;-78
2021/09/28 11:26:18;;;;;;;;;;;19.00;79.60;;;;;;5033966;28;19971;-77
2021/09/28 11:28:47;;;;;;;;;;;19.20;80.50;;;;;;5031269;28;20176;-78
2021/09/28 11:31:14;;;;;;;;;;;19.30;79.30;;;;;;5019762;28;19925;-80
2021/09/28 11:33:41;;;;;;;;;;;19.50;79.40;;;;;;5028049;28;19925;-80
2021/09/28 11:36:09;;;;;;;;;;;19.50;79.70;;;;;;5026741;28;19947;-78
2021/09/28 11:38:36;;;;;;;;;;;19.40;79.10;;;;;;5032862;28;19933;-78
2021/09/28 11:41:05;;;;;;;;;;;19.60;78.20;;;;;;5031597;28;20377;-79
2021/09/28 11:43:35;;;;;;;;;;;19.70;77.20;;;;;;5026392;28;20018;-80
2021/09/28 11:46:02;;;;;;;;;;;19.70;77.50;;;;;;5025857;28;19987;-81
2021/09/28 11:48:30;;;;;;;;;;;19.60;74.10;;;;;;5028385;28;19925;-81
2021/09/28 11:51:06;;;;;;;;;;;19.70;75.00;;;;;;5027692;28;19932;-80
2021/09/28 11:53:36;;;;;;;;;;;19.90;73.10;;;;;;5034233;28;19928;-78
2021/09/28 11:56:03;;;;;;;;;;;19.80;70.20;;;;;;5023889;28;19951;-81
2021/09/28 11:58:33;;;;;;;;;;;19.60;70.40;;;;;;5028462;28;19933;-80
2021/09/28 12:01:01;;;;;;;;;;;19.60;72.20;;;;;;5023620;28;19972;-79
2021/09/28 12:03:28;;;;;;;;;;;19.60;71.00;;;;;;5023780;28;20089;-78
2021/09/28 12:06:03;;;;;;;;;;;19.50;72.20;;;;;;5027952;28;19925;-80
2021/09/28 12:08:33;;;;;;;;;;;19.40;71.90;;;;;;5029460;28;20371;-77
2021/09/28 12:11:01;;;;;;;;;;;19.50;71.50;;;;;;5037812;28;19932;-79
2021/09/28 12:13:28;;;;;;;;;;;19.30;70.60;;;;;;5026290;28;19933;-80
2021/09/28 12:16:03;;;;;;;;;;;19.30;72.00;;;;;;5024160;28;20448;-76
2021/09/28 12:18:30;;;;;;;;;;;19.20;73.20;;;;;;5026919;28;19975;-77
2021/09/28 12:21:17;;;;;;;;;;;19.30;73.70;;;;;;5029824;28;19929;-78
2021/09/28 12:23:43;;;;;;;;;;;19.30;73.80;;;;;;5026890;28;19977;-79
2021/09/28 12:26:27;;;;;;;;;;;19.10;73.70;;;;;;5024847;28;19930;-79
2021/09/28 12:28:54;;;;;;;;;;;19.30;73.20;;;;;;5027682;28;19928;-79
2021/09/28 12:31:33;;;;;;;;;;;19.40;72.50;;;;;;5029046;28;19931;-78
2021/09/28 12:34:00;;;;;;;;;;;19.60;72.10;;;;;;5028301;28;19925;-77
2021/09/28 12:36:27;;;;;;;;;;;19.80;71.10;;;;;;5027010;28;20035;-81
2021/09/28 12:39:11;;;;;;;;;;;19.90;70.00;;;;;;5021682;28;19929;-80
2021/09/28 12:41:53;;;;;;;;;;;19.90;70.10;;;;;;5029328;28;20028;-79
2021/09/28 12:44:22;;;;;;;;;;;19.70;71.00;;;;;;5025172;28;20004;-80
2021/09/28 12:46:50;;;;;;;;;;;19.80;71.40;;;;;;5022828;28;19933;-78
2021/09/28 12:49:26;;;;;;;;;;;20.00;69.70;;;;;;5025895;28;20189;-77
2021/09/28 12:51:54;;;;;;;;;;;19.90;69.50;;;;;;5022933;28;19929;-83
2021/09/28 12:54:21;;;;;;;;;;;19.90;69.80;;;;;;5024989;28;19983;-78
2021/09/28 12:56:48;;;;;;;;;;;19.90;70.90;;;;;;5029580;28;20005;-79
2021/09/28 12:59:15;;;;;;;;;;;19.80;70.70;;;;;;5022610;28;20012;-81
2021/09/28 13:01:45;;;;;;;;;;;19.80;71.40;;;;;;5032722;28;20027;-80
2021/09/28 13:04:16;;;;;;;;;;;19.40;71.40;;;;;;5027531;28;19929;-80
2021/09/28 13:06:44;;;;;;;;;;;19.40;72.90;;;;;;5026351;28;19936;-79
2021/09/28 13:09:11;;;;;;;;;;;19.80;72.70;;;;;;5025823;28;20005;-79
2021/09/28 13:11:38;;;;;;;;;;;20.00;72.20;;;;;;5024453;28;19925;-80
2021/09/28 13:14:05;;;;;;;;;;;19.90;71.70;;;;;;5023608;28;19926;-79
2021/09/28 13:16:31;;;;;;;;;;;19.80;73.40;;;;;;5028088;28;19935;-83
2021/09/28 13:18:58;;;;;;;;;;;19.90;74.20;;;;;;5027894;28;20408;-80
2021/09/28 13:21:26;;;;;;;;;;;20.10;74.30;;;;;;5022973;28;20108;-80
2021/09/28 13:23:53;;;;;;;;;;;20.10;72.70;;;;;;5020278;28;19932;-82
2021/09/28 13:26:19;;;;;;;;;;;20.10;73.60;;;;;;5027286;28;19932;-76
2021/09/28 13:28:46;;;;;;;;;;;20.30;74.50;;;;;;5022673;28;19933;-79
2021/09/28 13:31:13;;;;;;;;;;;20.20;74.00;;;;;;5028352;28;20010;-81
2021/09/28 13:33:40;;;;;;;;;;;20.20;73.60;;;;;;5023195;28;19925;-79
2021/09/28 13:36:17;;;;;;;;;;;19.90;75.00;;;;;;5026680;28;19926;-78
2021/09/28 13:38:46;;;;;;;;;;;19.90;76.30;;;;;;5024027;28;20091;-78
2021/09/28 13:41:12;;;;;;;;;;;20.10;76.20;;;;;;5024055;28;20028;-75
2021/09/28 13:43:39;;;;;;;;;;;20.30;75.40;;;;;;5023017;28;19940;-76
2021/09/28 13:46:06;;;;;;;;;;;20.70;74.30;;;;;;5024849;28;20009;-78
2021/09/28 13:48:33;;;;;;;;;;;20.40;70.80;;;;;;5026781;28;19980;-81
2021/09/28 13:50:59;;;;;;;;;;;20.10;71.30;;;;;;5020915;28;19931;-78
2021/09/28 13:53:27;;;;;;;;;;;19.90;72.30;;;;;;5024294;28;21415;-79
2021/09/28 13:55:55;;;;;;;;;;;19.70;73.10;;;;;;5023397;28;19925;-81
2021/09/28 13:58:22;;;;;;;;;;;19.70;72.80;;;;;;5021238;28;20014;-83
2021/09/28 14:00:51;;;;;;;;;;;19.50;73.50;;;;;;5018583;28;20019;-81
2021/09/28 14:03:18;;;;;;;;;;;19.40;74.80;;;;;;5030887;28;19929;-79
2021/09/28 14:05:45;;;;;;;;;;;19.30;74.90;;;;;;5021015;28;19931;-84
2021/09/28 14:08:13;;;;;;;;;;;19.20;75.40;;;;;;5023593;28;19973;-83
2021/09/28 14:10:40;;;;;;;;;;;19.20;76.00;;;;;;5028961;28;19933;-81
2021/09/28 14:13:08;;;;;;;;;;;19.40;76.70;;;;;;5026526;28;19929;-77
2021/09/28 14:15:35;;;;;;;;;;;19.70;77.40;;;;;;5034369;28;19931;-77
2021/09/28 14:18:04;;;;;;;;;;;19.90;78.90;;;;;;5032316;28;19928;-76
2021/09/28 14:20:31;;;;;;;;;;;20.10;74.60;;;;;;5023806;28;19947;-79
2021/09/28 14:22:58;;;;;;;;;;;20.00;69.30;;;;;;5028118;28;20356;-80
2021/09/28 14:25:25;;;;;;;;;;;20.10;69.00;;;;;;5024800;28;19929;-78